Aérodrome :
LOGIN :

S'inscrire | Disclaimer

   EN    FR    IT 

 










Légende :    VFR   VFR Marginal   IFR   IFR Intensif   IFR Très Intensif
Visi : 
Plafond : 
>= 8 km
>= 3000ft
5 à 8 km
1000 à 3000 ft
1500m à 5 km
500 à 1000 ft
800 à 1500m
200 à 500 ft
< 800m
< 200 ft
Symboles :   Orages  Brouillard  Fortes neiges  Fortes précipitations  Vent > 20 kt
SIGMETs :   Divers  Orages  Givrage  Turbulence  Onde Orograph.  Cendres Volcan.







- Altitude de l'aérodrome : 194 ft


EBCV - Chièvres

DERNIER METAR :
  • 122125Z AUTO 18007KT 9999 BKN180/// 09/08 Q1018 BLU

METARs EXPIRÉS :
  • 122055Z AUTO 18007KT 9999 BKN160/// BKN200/// 09/08 Q1018 BLU
  • 122025Z AUTO 18007KT 9999 OVC140/// 10/08 Q1018 BLU
  • 121955Z AUTO 18008KT 9999 BKN150/// 09/08 Q1018 BLU
  • 121925Z AUTO 18007KT 9999 BKN160/// 09/08 Q1018 BLU
  • 121855Z AUTO 18008KT 9999 BKN170/// 09/08 Q1018 BLU

TAF TAF EBCV
Valide du 12 à 19h jusqu'au 13 à 07h UTC


121541Z 1219/1307 23010KT 9999 SCT100 BKN200
BECMG 1304/1309 23015G25KT SCT007 BKN012
TEMPO 1304/1309 SCT005 BKN008 BY EBWM
Pas de NOTAMs connus pour ce terrain.



MET'MAP, la Météo Aéronautique d'un coup d'oeil ! - Copyright ORBIFLY Décembre 2007 - Disclaimer

ORBIFLY MET'MAP TEAM :

Programmation & Développement : Alexandra Zaïnal
Conception & Développement : Baudouin d'Aumeries
Co-Programmation & Développement : Marc-Olivier Méhu
Soutien technique & logistique : Manuel Goepfert

Contact : metmap@orbifly.com




SOURCES & CREDITS :

   NOAA